sensor_id;sensor_type;location;lat;lon;timestamp;temperature;humidity
14727;DHT22;7454;51.256;8.176;2022-11-06T00:01:06;8.20;78.90
14727;DHT22;7454;51.256;8.176;2022-11-06T00:03:33;8.20;78.90
14727;DHT22;7454;51.256;8.176;2022-11-06T00:05:59;8.20;78.90
14727;DHT22;7454;51.256;8.176;2022-11-06T00:08:43;8.20;78.80
14727;DHT22;7454;51.256;8.176;2022-11-06T00:11:12;8.20;78.90
14727;DHT22;7454;51.256;8.176;2022-11-06T00:13:40;8.20;78.80
14727;DHT22;7454;51.256;8.176;2022-11-06T00:16:07;8.20;78.90
14727;DHT22;7454;51.256;8.176;2022-11-06T00:18:34;8.10;78.80
14727;DHT22;7454;51.256;8.176;2022-11-06T00:23:45;8.10;78.80
14727;DHT22;7454;51.256;8.176;2022-11-06T00:26:12;8.10;78.90
14727;DHT22;7454;51.256;8.176;2022-11-06T00:28:39;8.10;78.80
14727;DHT22;7454;51.256;8.176;2022-11-06T00:31:06;8.10;78.80
14727;DHT22;7454;51.256;8.176;2022-11-06T00:33:32;8.10;78.80
14727;DHT22;7454;51.256;8.176;2022-11-06T00:36:01;8.00;78.80
14727;DHT22;7454;51.256;8.176;2022-11-06T00:38:27;8.00;78.80
14727;DHT22;7454;51.256;8.176;2022-11-06T00:40:53;8.00;78.80
14727;DHT22;7454;51.256;8.176;2022-11-06T00:43:18;7.90;78.80
14727;DHT22;7454;51.256;8.176;2022-11-06T00:45:44;7.90;78.80
14727;DHT22;7454;51.256;8.176;2022-11-06T00:48:10;7.90;78.90
14727;DHT22;7454;51.256;8.176;2022-11-06T00:50:35;7.90;78.70
14727;DHT22;7454;51.256;8.176;2022-11-06T00:53:01;8.10;78.80
14727;DHT22;7454;51.256;8.176;2022-11-06T00:55:26;7.90;78.90
14727;DHT22;7454;51.256;8.176;2022-11-06T00:57:52;7.90;78.80
14727;DHT22;7454;51.256;8.176;2022-11-06T01:00:18;7.90;78.80
14727;DHT22;7454;51.256;8.176;2022-11-06T01:02:44;7.90;78.80
14727;DHT22;7454;51.256;8.176;2022-11-06T01:05:11;7.90;78.80
14727;DHT22;7454;51.256;8.176;2022-11-06T01:07:37;7.90;78.80
14727;DHT22;7454;51.256;8.176;2022-11-06T01:10:03;8.00;78.90
14727;DHT22;7454;51.256;8.176;2022-11-06T01:12:30;8.00;78.90
14727;DHT22;7454;51.256;8.176;2022-11-06T01:14:56;8.00;78.90
14727;DHT22;7454;51.256;8.176;2022-11-06T01:17:22;8.00;78.90
14727;DHT22;7454;51.256;8.176;2022-11-06T01:19:48;8.00;78.90
14727;DHT22;7454;51.256;8.176;2022-11-06T01:22:13;7.90;78.80
14727;DHT22;7454;51.256;8.176;2022-11-06T01:24:39;8.00;78.90
14727;DHT22;7454;51.256;8.176;2022-11-06T01:27:05;8.00;78.80
14727;DHT22;7454;51.256;8.176;2022-11-06T01:29:31;8.00;78.80
14727;DHT22;7454;51.256;8.176;2022-11-06T01:31:56;7.90;78.80
14727;DHT22;7454;51.256;8.176;2022-11-06T01:34:22;8.00;78.80
14727;DHT22;7454;51.256;8.176;2022-11-06T01:36:48;8.00;78.90
14727;DHT22;7454;51.256;8.176;2022-11-06T01:39:14;7.90;78.90
14727;DHT22;7454;51.256;8.176;2022-11-06T01:41:41;7.90;78.80
14727;DHT22;7454;51.256;8.176;2022-11-06T01:46:56;7.90;78.80
14727;DHT22;7454;51.256;8.176;2022-11-06T01:49:22;7.90;78.90
14727;DHT22;7454;51.256;8.176;2022-11-06T01:51:49;7.90;78.80
14727;DHT22;7454;51.256;8.176;2022-11-06T01:54:26;7.90;78.90
14727;DHT22;7454;51.256;8.176;2022-11-06T01:56:54;7.90;78.80
14727;DHT22;7454;51.256;8.176;2022-11-06T01:59:22;7.90;78.70
14727;DHT22;7454;51.256;8.176;2022-11-06T02:01:51;8.00;78.80
14727;DHT22;7454;51.256;8.176;2022-11-06T02:04:21;8.00;78.80
14727;DHT22;7454;51.256;8.176;2022-11-06T02:06:49;8.00;78.70
14727;DHT22;7454;51.256;8.176;2022-11-06T02:09:16;8.20;78.90
14727;DHT22;7454;51.256;8.176;2022-11-06T02:11:44;8.10;78.90
14727;DHT22;7454;51.256;8.176;2022-11-06T02:14:19;8.00;78.80
14727;DHT22;7454;51.256;8.176;2022-11-06T02:19:38;8.10;78.80
14727;DHT22;7454;51.256;8.176;2022-11-06T02:28:06;8.20;78.80
14727;DHT22;7454;51.256;8.176;2022-11-06T02:30:35;8.10;78.80
14727;DHT22;7454;51.256;8.176;2022-11-06T02:33:07;8.10;78.80
14727;DHT22;7454;51.256;8.176;2022-11-06T02:35:36;8.20;78.80
14727;DHT22;7454;51.256;8.176;2022-11-06T02:38:11;8.20;78.90
14727;DHT22;7454;51.256;8.176;2022-11-06T02:40:45;8.20;78.80
14727;DHT22;7454;51.256;8.176;2022-11-06T02:43:12;8.20;78.80
14727;DHT22;7454;51.256;8.176;2022-11-06T02:45:40;8.30;78.70
14727;DHT22;7454;51.256;8.176;2022-11-06T02:48:10;8.10;78.70
14727;DHT22;7454;51.256;8.176;2022-11-06T02:50:39;8.30;78.70
14727;DHT22;7454;51.256;8.176;2022-11-06T02:53:08;8.30;78.70
14727;DHT22;7454;51.256;8.176;2022-11-06T02:55:36;8.20;78.60
14727;DHT22;7454;51.256;8.176;2022-11-06T02:58:15;8.20;78.70
14727;DHT22;7454;51.256;8.176;2022-11-06T03:00:53;8.20;78.70
14727;DHT22;7454;51.256;8.176;2022-11-06T03:03:24;8.20;78.60
14727;DHT22;7454;51.256;8.176;2022-11-06T03:06:09;8.10;78.70
14727;DHT22;7454;51.256;8.176;2022-11-06T03:08:50;8.10;78.60
14727;DHT22;7454;51.256;8.176;2022-11-06T03:11:20;8.10;78.70
14727;DHT22;7454;51.256;8.176;2022-11-06T03:13:50;8.10;78.70
14727;DHT22;7454;51.256;8.176;2022-11-06T03:16:35;8.10;78.70
14727;DHT22;7454;51.256;8.176;2022-11-06T03:21:49;8.10;78.70
14727;DHT22;7454;51.256;8.176;2022-11-06T03:24:20;8.10;78.70
14727;DHT22;7454;51.256;8.176;2022-11-06T03:27:05;8.20;78.60
14727;DHT22;7454;51.256;8.176;2022-11-06T03:29:40;8.10;78.70
14727;DHT22;7454;51.256;8.176;2022-11-06T03:34:53;8.10;78.70
14727;DHT22;7454;51.256;8.176;2022-11-06T03:37:22;8.10;78.60
14727;DHT22;7454;51.256;8.176;2022-11-06T03:39:53;8.10;78.70
14727;DHT22;7454;51.256;8.176;2022-11-06T03:42:21;8.10;78.70
14727;DHT22;7454;51.256;8.176;2022-11-06T03:44:50;8.20;78.70
14727;DHT22;7454;51.256;8.176;2022-11-06T03:47:28;8.10;78.70
14727;DHT22;7454;51.256;8.176;2022-11-06T03:50:05;8.20;78.70
14727;DHT22;7454;51.256;8.176;2022-11-06T03:52:41;8.20;78.70
14727;DHT22;7454;51.256;8.176;2022-11-06T03:55:15;8.20;78.70
14727;DHT22;7454;51.256;8.176;2022-11-06T03:57:45;8.20;78.70
14727;DHT22;7454;51.256;8.176;2022-11-06T04:00:14;8.20;78.70
14727;DHT22;7454;51.256;8.176;2022-11-06T04:02:43;8.20;78.80
14727;DHT22;7454;51.256;8.176;2022-11-06T04:05:12;8.20;78.80
14727;DHT22;7454;51.256;8.176;2022-11-06T04:07:43;8.20;78.60
14727;DHT22;7454;51.256;8.176;2022-11-06T04:10:30;8.20;78.70
14727;DHT22;7454;51.256;8.176;2022-11-06T04:13:15;8.20;78.80
14727;DHT22;7454;51.256;8.176;2022-11-06T04:16:01;8.20;78.70
14727;DHT22;7454;51.256;8.176;2022-11-06T04:18:27;8.20;78.70
14727;DHT22;7454;51.256;8.176;2022-11-06T04:20:56;8.20;78.70
14727;DHT22;7454;51.256;8.176;2022-11-06T04:32:21;8.10;78.70
14727;DHT22;7454;51.256;8.176;2022-11-06T04:35:23;8.20;78.80
14727;DHT22;7454;51.256;8.176;2022-11-06T04:43:44;8.10;78.70
14727;DHT22;7454;51.256;8.176;2022-11-06T04:46:14;8.20;78.70
14727;DHT22;7454;51.256;8.176;2022-11-06T04:48:47;8.10;78.60
14727;DHT22;7454;51.256;8.176;2022-11-06T04:51:14;8.10;78.70
14727;DHT22;7454;51.256;8.176;2022-11-06T04:53:39;8.10;78.70
14727;DHT22;7454;51.256;8.176;2022-11-06T04:56:08;8.10;78.70
14727;DHT22;7454;51.256;8.176;2022-11-06T04:58:35;8.10;78.80
14727;DHT22;7454;51.256;8.176;2022-11-06T05:01:01;8.10;78.80
14727;DHT22;7454;51.256;8.176;2022-11-06T05:03:27;8.10;78.70
14727;DHT22;7454;51.256;8.176;2022-11-06T05:05:52;8.10;78.70
14727;DHT22;7454;51.256;8.176;2022-11-06T05:08:19;8.20;78.80
14727;DHT22;7454;51.256;8.176;2022-11-06T05:10:45;8.10;78.70
14727;DHT22;7454;51.256;8.176;2022-11-06T05:13:11;8.10;78.70
14727;DHT22;7454;51.256;8.176;2022-11-06T05:15:38;8.10;78.70
14727;DHT22;7454;51.256;8.176;2022-11-06T05:18:03;8.10;78.60
14727;DHT22;7454;51.256;8.176;2022-11-06T05:20:29;8.10;78.70
14727;DHT22;7454;51.256;8.176;2022-11-06T05:22:55;8.10;78.60
14727;DHT22;7454;51.256;8.176;2022-11-06T05:25:34;8.10;78.70
14727;DHT22;7454;51.256;8.176;2022-11-06T05:28:02;8.00;78.60
14727;DHT22;7454;51.256;8.176;2022-11-06T05:30:30;8.00;78.70
14727;DHT22;7454;51.256;8.176;2022-11-06T05:32:56;8.00;78.60
14727;DHT22;7454;51.256;8.176;2022-11-06T05:35:22;8.00;78.70
14727;DHT22;7454;51.256;8.176;2022-11-06T05:37:47;8.00;78.60
14727;DHT22;7454;51.256;8.176;2022-11-06T05:40:13;8.00;78.60
14727;DHT22;7454;51.256;8.176;2022-11-06T05:42:39;8.00;78.70
14727;DHT22;7454;51.256;8.176;2022-11-06T05:45:06;8.00;78.60
14727;DHT22;7454;51.256;8.176;2022-11-06T05:47:32;8.00;78.50
14727;DHT22;7454;51.256;8.176;2022-11-06T05:49:58;8.00;78.60
14727;DHT22;7454;51.256;8.176;2022-11-06T05:52:23;8.00;78.60
14727;DHT22;7454;51.256;8.176;2022-11-06T05:54:49;8.00;78.60
14727;DHT22;7454;51.256;8.176;2022-11-06T05:57:15;8.00;78.60
14727;DHT22;7454;51.256;8.176;2022-11-06T05:59:41;8.00;78.50
14727;DHT22;7454;51.256;8.176;2022-11-06T06:02:07;7.90;78.50
14727;DHT22;7454;51.256;8.176;2022-11-06T06:04:32;7.90;78.60
14727;DHT22;7454;51.256;8.176;2022-11-06T06:06:58;7.90;78.60
14727;DHT22;7454;51.256;8.176;2022-11-06T06:09:25;7.90;78.60
14727;DHT22;7454;51.256;8.176;2022-11-06T06:11:51;7.90;78.50
14727;DHT22;7454;51.256;8.176;2022-11-06T06:14:17;7.90;78.50
14727;DHT22;7454;51.256;8.176;2022-11-06T06:16:43;7.90;78.60
14727;DHT22;7454;51.256;8.176;2022-11-06T06:19:09;7.90;78.60
14727;DHT22;7454;51.256;8.176;2022-11-06T06:21:35;8.00;78.60
14727;DHT22;7454;51.256;8.176;2022-11-06T06:24:02;8.00;78.60
14727;DHT22;7454;51.256;8.176;2022-11-06T06:26:28;8.00;78.50
14727;DHT22;7454;51.256;8.176;2022-11-06T06:28:54;8.00;78.50
14727;DHT22;7454;51.256;8.176;2022-11-06T06:31:19;8.00;78.60
14727;DHT22;7454;51.256;8.176;2022-11-06T06:33:45;8.00;78.40
14727;DHT22;7454;51.256;8.176;2022-11-06T06:36:11;8.00;78.50
14727;DHT22;7454;51.256;8.176;2022-11-06T06:38:37;8.00;78.60
14727;DHT22;7454;51.256;8.176;2022-11-06T06:41:04;8.10;78.50
14727;DHT22;7454;51.256;8.176;2022-11-06T06:43:31;8.10;78.60
14727;DHT22;7454;51.256;8.176;2022-11-06T06:46:01;8.10;78.50
14727;DHT22;7454;51.256;8.176;2022-11-06T06:48:28;8.00;78.40
14727;DHT22;7454;51.256;8.176;2022-11-06T06:50:57;8.10;78.50
14727;DHT22;7454;51.256;8.176;2022-11-06T06:53:24;8.10;78.50
14727;DHT22;7454;51.256;8.176;2022-11-06T06:55:50;8.10;78.50
14727;DHT22;7454;51.256;8.176;2022-11-06T06:58:16;8.20;78.50
14727;DHT22;7454;51.256;8.176;2022-11-06T07:00:42;8.10;78.40
14727;DHT22;7454;51.256;8.176;2022-11-06T07:03:08;8.20;78.40
14727;DHT22;7454;51.256;8.176;2022-11-06T07:05:34;8.10;78.40
14727;DHT22;7454;51.256;8.176;2022-11-06T07:08:00;8.10;78.40
14727;DHT22;7454;51.256;8.176;2022-11-06T07:10:26;8.10;78.40
14727;DHT22;7454;51.256;8.176;2022-11-06T07:12:52;8.10;78.40
14727;DHT22;7454;51.256;8.176;2022-11-06T07:15:17;8.20;78.40
14727;DHT22;7454;51.256;8.176;2022-11-06T07:17:43;8.20;78.40
14727;DHT22;7454;51.256;8.176;2022-11-06T07:20:09;8.20;78.50
14727;DHT22;7454;51.256;8.176;2022-11-06T07:22:35;8.20;78.50
14727;DHT22;7454;51.256;8.176;2022-11-06T07:25:00;8.20;78.40
14727;DHT22;7454;51.256;8.176;2022-11-06T07:27:26;8.20;78.40
14727;DHT22;7454;51.256;8.176;2022-11-06T07:29:53;8.20;78.50
14727;DHT22;7454;51.256;8.176;2022-11-06T07:32:19;8.30;78.40
14727;DHT22;7454;51.256;8.176;2022-11-06T07:34:45;8.30;78.50
14727;DHT22;7454;51.256;8.176;2022-11-06T07:37:10;8.20;78.40
14727;DHT22;7454;51.256;8.176;2022-11-06T07:39:36;8.20;78.40
14727;DHT22;7454;51.256;8.176;2022-11-06T07:42:01;8.20;78.40
14727;DHT22;7454;51.256;8.176;2022-11-06T07:44:33;8.20;78.40
14727;DHT22;7454;51.256;8.176;2022-11-06T07:46:59;8.10;78.40
14727;DHT22;7454;51.256;8.176;2022-11-06T07:49:24;8.20;78.40
14727;DHT22;7454;51.256;8.176;2022-11-06T07:51:50;8.20;78.40
14727;DHT22;7454;51.256;8.176;2022-11-06T07:54:16;8.20;78.40
14727;DHT22;7454;51.256;8.176;2022-11-06T07:56:42;8.10;78.40
14727;DHT22;7454;51.256;8.176;2022-11-06T07:59:07;8.20;78.50
14727;DHT22;7454;51.256;8.176;2022-11-06T08:01:33;8.20;78.50
14727;DHT22;7454;51.256;8.176;2022-11-06T08:03:59;8.20;78.50
14727;DHT22;7454;51.256;8.176;2022-11-06T08:06:25;8.20;78.50
14727;DHT22;7454;51.256;8.176;2022-11-06T08:08:50;8.20;78.50
14727;DHT22;7454;51.256;8.176;2022-11-06T08:11:16;8.20;78.60
14727;DHT22;7454;51.256;8.176;2022-11-06T08:13:42;8.30;78.50
14727;DHT22;7454;51.256;8.176;2022-11-06T08:16:09;8.30;78.70
14727;DHT22;7454;51.256;8.176;2022-11-06T08:18:36;8.30;78.70
14727;DHT22;7454;51.256;8.176;2022-11-06T08:21:02;8.30;78.60
14727;DHT22;7454;51.256;8.176;2022-11-06T08:23:28;8.40;78.60
14727;DHT22;7454;51.256;8.176;2022-11-06T08:25:57;8.40;78.50
14727;DHT22;7454;51.256;8.176;2022-11-06T08:28:25;8.50;78.60
14727;DHT22;7454;51.256;8.176;2022-11-06T08:30:51;8.50;78.60
14727;DHT22;7454;51.256;8.176;2022-11-06T08:33:17;8.40;78.50
14727;DHT22;7454;51.256;8.176;2022-11-06T08:35:43;8.60;78.50
14727;DHT22;7454;51.256;8.176;2022-11-06T08:38:09;8.60;78.50
14727;DHT22;7454;51.256;8.176;2022-11-06T08:40:35;8.70;78.60
14727;DHT22;7454;51.256;8.176;2022-11-06T08:43:04;8.70;78.60
14727;DHT22;7454;51.256;8.176;2022-11-06T08:45:34;8.70;78.50
14727;DHT22;7454;51.256;8.176;2022-11-06T08:48:01;8.70;78.50
14727;DHT22;7454;51.256;8.176;2022-11-06T08:50:28;8.80;78.50
14727;DHT22;7454;51.256;8.176;2022-11-06T08:52:57;8.80;78.50
14727;DHT22;7454;51.256;8.176;2022-11-06T08:55:25;8.80;78.40
14727;DHT22;7454;51.256;8.176;2022-11-06T08:57:54;8.80;78.40
14727;DHT22;7454;51.256;8.176;2022-11-06T09:00:20;8.90;78.30
14727;DHT22;7454;51.256;8.176;2022-11-06T09:02:45;8.80;78.30
14727;DHT22;7454;51.256;8.176;2022-11-06T09:05:11;8.80;78.40
14727;DHT22;7454;51.256;8.176;2022-11-06T09:07:37;8.90;78.40
14727;DHT22;7454;51.256;8.176;2022-11-06T09:10:02;8.80;78.30
14727;DHT22;7454;51.256;8.176;2022-11-06T09:12:29;8.80;78.40
14727;DHT22;7454;51.256;8.176;2022-11-06T09:14:54;8.80;78.30
14727;DHT22;7454;51.256;8.176;2022-11-06T09:17:20;8.80;78.40
14727;DHT22;7454;51.256;8.176;2022-11-06T09:19:51;8.80;78.40
14727;DHT22;7454;51.256;8.176;2022-11-06T09:22:17;8.90;78.50
14727;DHT22;7454;51.256;8.176;2022-11-06T09:24:42;8.90;78.50
14727;DHT22;7454;51.256;8.176;2022-11-06T09:27:08;9.00;78.40
14727;DHT22;7454;51.256;8.176;2022-11-06T09:29:34;9.00;78.40
14727;DHT22;7454;51.256;8.176;2022-11-06T09:31:59;9.10;78.50
14727;DHT22;7454;51.256;8.176;2022-11-06T09:34:25;9.20;78.50
14727;DHT22;7454;51.256;8.176;2022-11-06T09:36:50;9.20;78.40
14727;DHT22;7454;51.256;8.176;2022-11-06T09:39:16;9.20;78.30
14727;DHT22;7454;51.256;8.176;2022-11-06T09:44:50;9.30;78.30
14727;DHT22;7454;51.256;8.176;2022-11-06T09:47:27;9.30;78.30
14727;DHT22;7454;51.256;8.176;2022-11-06T09:49:55;9.30;78.20
14727;DHT22;7454;51.256;8.176;2022-11-06T09:55:00;9.30;78.30
14727;DHT22;7454;51.256;8.176;2022-11-06T09:57:30;9.30;78.10
14727;DHT22;7454;51.256;8.176;2022-11-06T10:00:00;9.30;78.10
14727;DHT22;7454;51.256;8.176;2022-11-06T10:02:34;9.30;78.10
14727;DHT22;7454;51.256;8.176;2022-11-06T10:05:07;9.30;78.20
14727;DHT22;7454;51.256;8.176;2022-11-06T10:07:39;9.30;78.10
14727;DHT22;7454;51.256;8.176;2022-11-06T10:10:07;9.30;78.00
14727;DHT22;7454;51.256;8.176;2022-11-06T10:12:48;9.40;78.00
14727;DHT22;7454;51.256;8.176;2022-11-06T10:15:26;9.40;78.10
14727;DHT22;7454;51.256;8.176;2022-11-06T10:18:07;9.40;78.10
14727;DHT22;7454;51.256;8.176;2022-11-06T10:20:56;9.40;78.00
14727;DHT22;7454;51.256;8.176;2022-11-06T10:26:27;9.50;78.10
14727;DHT22;7454;51.256;8.176;2022-11-06T10:35:07;9.60;78.00
14727;DHT22;7454;51.256;8.176;2022-11-06T10:37:43;9.60;77.90
14727;DHT22;7454;51.256;8.176;2022-11-06T10:40:14;9.70;78.00
14727;DHT22;7454;51.256;8.176;2022-11-06T10:42:42;9.70;78.10
14727;DHT22;7454;51.256;8.176;2022-11-06T10:47:50;9.90;77.90
14727;DHT22;7454;51.256;8.176;2022-11-06T10:50:18;10.00;77.90
14727;DHT22;7454;51.256;8.176;2022-11-06T10:53:02;10.00;77.70
14727;DHT22;7454;51.256;8.176;2022-11-06T10:58:29;10.10;77.70
14727;DHT22;7454;51.256;8.176;2022-11-06T11:01:00;10.10;77.70
14727;DHT22;7454;51.256;8.176;2022-11-06T11:03:28;10.10;77.60
14727;DHT22;7454;51.256;8.176;2022-11-06T11:05:56;10.20;77.80
14727;DHT22;7454;51.256;8.176;2022-11-06T11:13:40;10.30;77.50
14727;DHT22;7454;51.256;8.176;2022-11-06T11:16:39;10.30;77.40
14727;DHT22;7454;51.256;8.176;2022-11-06T11:21:52;10.30;77.30
14727;DHT22;7454;51.256;8.176;2022-11-06T11:24:19;10.20;77.30
14727;DHT22;7454;51.256;8.176;2022-11-06T11:26:46;10.30;77.30
14727;DHT22;7454;51.256;8.176;2022-11-06T11:29:13;10.30;77.20
14727;DHT22;7454;51.256;8.176;2022-11-06T11:31:43;10.30;77.20
14727;DHT22;7454;51.256;8.176;2022-11-06T11:34:15;10.30;77.10
14727;DHT22;7454;51.256;8.176;2022-11-06T11:36:46;10.30;77.10
14727;DHT22;7454;51.256;8.176;2022-11-06T11:39:21;10.30;77.10
14727;DHT22;7454;51.256;8.176;2022-11-06T11:41:49;10.30;77.10
14727;DHT22;7454;51.256;8.176;2022-11-06T11:44:16;10.30;77.00
14727;DHT22;7454;51.256;8.176;2022-11-06T11:52:10;10.40;76.90
14727;DHT22;7454;51.256;8.176;2022-11-06T11:54:37;10.40;76.90
14727;DHT22;7454;51.256;8.176;2022-11-06T11:57:04;10.40;76.80
14727;DHT22;7454;51.256;8.176;2022-11-06T12:04:55;10.40;76.90
14727;DHT22;7454;51.256;8.176;2022-11-06T12:07:24;10.50;76.80
14727;DHT22;7454;51.256;8.176;2022-11-06T12:09:50;10.50;76.80
14727;DHT22;7454;51.256;8.176;2022-11-06T12:12:20;10.50;76.80
14727;DHT22;7454;51.256;8.176;2022-11-06T12:17:43;10.60;76.70
14727;DHT22;7454;51.256;8.176;2022-11-06T12:20:15;10.70;76.70
14727;DHT22;7454;51.256;8.176;2022-11-06T12:22:44;10.70;76.70
14727;DHT22;7454;51.256;8.176;2022-11-06T12:25:15;10.80;76.50
14727;DHT22;7454;51.256;8.176;2022-11-06T12:27:45;10.80;76.40
14727;DHT22;7454;51.256;8.176;2022-11-06T12:30:21;10.90;76.70
14727;DHT22;7454;51.256;8.176;2022-11-06T12:35:40;10.90;76.40
14727;DHT22;7454;51.256;8.176;2022-11-06T12:38:23;10.90;76.50
14727;DHT22;7454;51.256;8.176;2022-11-06T12:41:21;10.90;76.30
14727;DHT22;7454;51.256;8.176;2022-11-06T12:43:50;10.90;76.10
14727;DHT22;7454;51.256;8.176;2022-11-06T12:46:18;10.90;76.10
14727;DHT22;7454;51.256;8.176;2022-11-06T12:48:52;11.00;76.20
14727;DHT22;7454;51.256;8.176;2022-11-06T13:00:20;11.00;76.20
14727;DHT22;7454;51.256;8.176;2022-11-06T13:03:08;11.00;76.20
14727;DHT22;7454;51.256;8.176;2022-11-06T13:06:01;11.00;76.10
14727;DHT22;7454;51.256;8.176;2022-11-06T13:08:43;11.00;76.40
14727;DHT22;7454;51.256;8.176;2022-11-06T13:16:24;11.00;76.40
14727;DHT22;7454;51.256;8.176;2022-11-06T13:18:57;11.10;76.30
14727;DHT22;7454;51.256;8.176;2022-11-06T13:24:27;11.00;76.10
14727;DHT22;7454;51.256;8.176;2022-11-06T13:27:03;11.00;76.10
14727;DHT22;7454;51.256;8.176;2022-11-06T13:29:34;11.00;76.40
14727;DHT22;7454;51.256;8.176;2022-11-06T13:32:01;11.00;76.20
14727;DHT22;7454;51.256;8.176;2022-11-06T13:34:30;11.10;76.10
14727;DHT22;7454;51.256;8.176;2022-11-06T13:36:58;11.00;76.20
14727;DHT22;7454;51.256;8.176;2022-11-06T13:39:41;11.00;76.00
14727;DHT22;7454;51.256;8.176;2022-11-06T13:42:18;11.00;75.90
14727;DHT22;7454;51.256;8.176;2022-11-06T13:44:46;10.90;75.90
14727;DHT22;7454;51.256;8.176;2022-11-06T13:47:20;10.90;75.60
14727;DHT22;7454;51.256;8.176;2022-11-06T13:49:57;10.90;75.80
14727;DHT22;7454;51.256;8.176;2022-11-06T13:52:37;10.90;76.10
14727;DHT22;7454;51.256;8.176;2022-11-06T14:00:51;10.80;76.20
14727;DHT22;7454;51.256;8.176;2022-11-06T14:03:30;10.80;76.40
14727;DHT22;7454;51.256;8.176;2022-11-06T14:06:00;10.80;76.50
14727;DHT22;7454;51.256;8.176;2022-11-06T14:08:40;10.80;76.50
14727;DHT22;7454;51.256;8.176;2022-11-06T14:11:12;10.70;76.50
14727;DHT22;7454;51.256;8.176;2022-11-06T14:13:59;10.80;76.40
14727;DHT22;7454;51.256;8.176;2022-11-06T14:16:36;10.70;76.70
14727;DHT22;7454;51.256;8.176;2022-11-06T14:19:05;10.70;76.40
14727;DHT22;7454;51.256;8.176;2022-11-06T14:26:59;10.70;76.50
14727;DHT22;7454;51.256;8.176;2022-11-06T14:34:35;10.60;76.50
14727;DHT22;7454;51.256;8.176;2022-11-06T14:40:09;10.60;76.60
14727;DHT22;7454;51.256;8.176;2022-11-06T14:42:46;10.60;76.30
14727;DHT22;7454;51.256;8.176;2022-11-06T14:45:19;10.60;76.10
14727;DHT22;7454;51.256;8.176;2022-11-06T14:52:49;10.50;75.70
14727;DHT22;7454;51.256;8.176;2022-11-06T14:55:29;10.50;75.80
14727;DHT22;7454;51.256;8.176;2022-11-06T14:57:57;10.50;75.80
14727;DHT22;7454;51.256;8.176;2022-11-06T15:00:33;10.40;75.80
14727;DHT22;7454;51.256;8.176;2022-11-06T15:03:02;10.40;75.80
14727;DHT22;7454;51.256;8.176;2022-11-06T15:05:29;10.60;75.80
14727;DHT22;7454;51.256;8.176;2022-11-06T15:07:56;10.40;75.80
14727;DHT22;7454;51.256;8.176;2022-11-06T15:13:11;10.40;75.60
14727;DHT22;7454;51.256;8.176;2022-11-06T15:15:43;10.30;75.60
14727;DHT22;7454;51.256;8.176;2022-11-06T15:18:11;10.20;75.50
14727;DHT22;7454;51.256;8.176;2022-11-06T15:20:40;10.30;75.50
14727;DHT22;7454;51.256;8.176;2022-11-06T15:23:11;10.30;75.80
14727;DHT22;7454;51.256;8.176;2022-11-06T15:25:50;10.30;75.50
14727;DHT22;7454;51.256;8.176;2022-11-06T15:28:21;10.20;75.50
14727;DHT22;7454;51.256;8.176;2022-11-06T15:31:23;10.20;75.70
14727;DHT22;7454;51.256;8.176;2022-11-06T15:36:27;10.10;75.50
14727;DHT22;7454;51.256;8.176;2022-11-06T15:38:53;10.10;75.50
14727;DHT22;7454;51.256;8.176;2022-11-06T15:41:23;10.10;75.50
14727;DHT22;7454;51.256;8.176;2022-11-06T15:43:50;10.10;75.80
14727;DHT22;7454;51.256;8.176;2022-11-06T15:46:19;10.00;75.70
14727;DHT22;7454;51.256;8.176;2022-11-06T15:49:04;10.00;75.70
14727;DHT22;7454;51.256;8.176;2022-11-06T15:51:35;9.90;75.70
14727;DHT22;7454;51.256;8.176;2022-11-06T15:54:02;9.90;75.60
14727;DHT22;7454;51.256;8.176;2022-11-06T15:56:29;9.90;75.60
14727;DHT22;7454;51.256;8.176;2022-11-06T15:59:10;9.90;75.70
14727;DHT22;7454;51.256;8.176;2022-11-06T16:01:38;9.80;75.60
14727;DHT22;7454;51.256;8.176;2022-11-06T16:04:12;9.80;75.80
14727;DHT22;7454;51.256;8.176;2022-11-06T16:06:43;9.80;75.90
14727;DHT22;7454;51.256;8.176;2022-11-06T16:09:17;9.80;75.80
14727;DHT22;7454;51.256;8.176;2022-11-06T16:11:47;9.80;75.70
14727;DHT22;7454;51.256;8.176;2022-11-06T16:14:14;9.70;75.70
14727;DHT22;7454;51.256;8.176;2022-11-06T16:16:42;9.70;75.70
14727;DHT22;7454;51.256;8.176;2022-11-06T16:19:26;9.70;75.60
14727;DHT22;7454;51.256;8.176;2022-11-06T16:21:59;9.70;75.90
14727;DHT22;7454;51.256;8.176;2022-11-06T16:24:54;9.70;75.80
14727;DHT22;7454;51.256;8.176;2022-11-06T16:27:33;9.70;75.70
14727;DHT22;7454;51.256;8.176;2022-11-06T16:30:01;9.70;75.90
14727;DHT22;7454;51.256;8.176;2022-11-06T16:32:28;9.70;75.70
14727;DHT22;7454;51.256;8.176;2022-11-06T16:34:56;9.70;75.30
14727;DHT22;7454;51.256;8.176;2022-11-06T16:37:31;9.70;75.40
14727;DHT22;7454;51.256;8.176;2022-11-06T16:39:59;9.70;75.40
14727;DHT22;7454;51.256;8.176;2022-11-06T16:42:31;9.70;75.30
14727;DHT22;7454;51.256;8.176;2022-11-06T16:47:35;9.70;75.40
14727;DHT22;7454;51.256;8.176;2022-11-06T16:50:01;9.60;75.20
14727;DHT22;7454;51.256;8.176;2022-11-06T16:52:33;9.70;75.20
14727;DHT22;7454;51.256;8.176;2022-11-06T17:02:31;9.70;75.00
14727;DHT22;7454;51.256;8.176;2022-11-06T17:05:06;9.70;74.90
14727;DHT22;7454;51.256;8.176;2022-11-06T17:07:32;9.70;74.90
14727;DHT22;7454;51.256;8.176;2022-11-06T17:10:19;9.70;74.90
14727;DHT22;7454;51.256;8.176;2022-11-06T17:13:21;9.70;75.10
14727;DHT22;7454;51.256;8.176;2022-11-06T17:15:50;9.70;75.20
14727;DHT22;7454;51.256;8.176;2022-11-06T17:18:21;9.70;75.30
14727;DHT22;7454;51.256;8.176;2022-11-06T17:20:53;9.70;75.40
14727;DHT22;7454;51.256;8.176;2022-11-06T17:23:21;9.70;75.50
14727;DHT22;7454;51.256;8.176;2022-11-06T17:25:47;9.80;75.70
14727;DHT22;7454;51.256;8.176;2022-11-06T17:28:13;9.70;75.80
14727;DHT22;7454;51.256;8.176;2022-11-06T17:30:39;9.70;76.00
14727;DHT22;7454;51.256;8.176;2022-11-06T17:33:05;9.70;76.20
14727;DHT22;7454;51.256;8.176;2022-11-06T17:35:31;9.60;76.10
14727;DHT22;7454;51.256;8.176;2022-11-06T17:37:57;9.60;76.20
14727;DHT22;7454;51.256;8.176;2022-11-06T17:40:23;9.60;76.30
14727;DHT22;7454;51.256;8.176;2022-11-06T17:42:48;9.60;76.40
14727;DHT22;7454;51.256;8.176;2022-11-06T17:45:14;9.50;76.50
14727;DHT22;7454;51.256;8.176;2022-11-06T17:47:40;9.50;76.80
14727;DHT22;7454;51.256;8.176;2022-11-06T17:50:05;9.40;76.90
14727;DHT22;7454;51.256;8.176;2022-11-06T17:52:31;9.40;77.00
14727;DHT22;7454;51.256;8.176;2022-11-06T17:54:57;9.30;77.10
14727;DHT22;7454;51.256;8.176;2022-11-06T17:57:23;9.30;77.10
14727;DHT22;7454;51.256;8.176;2022-11-06T17:59:48;9.20;77.10
14727;DHT22;7454;51.256;8.176;2022-11-06T18:02:14;9.20;77.20
14727;DHT22;7454;51.256;8.176;2022-11-06T18:04:41;9.10;77.00
14727;DHT22;7454;51.256;8.176;2022-11-06T18:07:07;9.00;77.10
14727;DHT22;7454;51.256;8.176;2022-11-06T18:09:33;9.00;77.30
14727;DHT22;7454;51.256;8.176;2022-11-06T18:11:59;9.00;77.70
14727;DHT22;7454;51.256;8.176;2022-11-06T18:14:25;9.00;77.70
14727;DHT22;7454;51.256;8.176;2022-11-06T18:16:52;9.00;77.90
14727;DHT22;7454;51.256;8.176;2022-11-06T18:19:19;8.90;77.70
14727;DHT22;7454;51.256;8.176;2022-11-06T18:21:46;8.90;77.50
14727;DHT22;7454;51.256;8.176;2022-11-06T18:24:12;8.90;77.30
14727;DHT22;7454;51.256;8.176;2022-11-06T18:26:38;8.90;77.40
14727;DHT22;7454;51.256;8.176;2022-11-06T18:29:04;8.90;77.30